Karnes City, Texas
Current Conditions -  °F | °C
As of 12:35 PM on Saturday 20 Dec 2014 (Local Time) from KBEA Reporting Station
Overcast Overcast  
Wind Chill: 53°   Ceiling: 1300
Heat Index: 53°   Visibility: 10mi
Dew Point: 49°   Wind: 5mph
Humidity: 84%   Direction: 20°NNE
Pressure: 30.19"   Gusts: NA
Location:  28.88°N, 97.9°W
Report Text: KBEA 201835Z AUTO 02004KT 10SM OVC013 12/09 A3019 RMK AO2 T01180092
Loading
Personal Weather Stations






























Interactive Weather Map New forecast layout! Learn more

10-Day Weather Forecast

Advertisements
Track Severe Weather on mobile